Main page
METAR-TAF:

METAR-TAF

Airports :

Bandar Abbas, Iran

Bandar Abbas International Airport

latitude: 27-13N, longitude: 056-22E, elevation: 10 m

Current weather observation

The report was made 35 minutes ago, at 13:30 UTC
Wind 10 kt from the West/Southwest
Temperature 31°C
Humidity 63%
Pressure 1006 hPa
Visibility: 6000 m

METAR: OIKB 211330Z 24010KT 6000 NSC 31/23 Q1006 A2972

Time: 17:35 (14:05 UTC)

Forecast

The report was made 3 hours and 5 minutes ago, at 11:00 UTC
Forecast valid from 21 at 12 UTC to 22 at 18 UTC
Wind 12 kt from the South
Visibility: 6000 m
Temporary
from 21 at 21 UTC to 21 at 23 UTC
Wind 10 kt from the East
Visibility: 3000 m
mist
Becoming
from 22 at 15 UTC to 22 at 17 UTC
Wind 10 kt from the South

TAF: OIKB 211100Z 2112/2218 19006MPS 6000 NSC TEMPO 2121/2123 08005MPS 3000 BR BECMG 2215/2217 18005MPS

Weather observations and forecasts of more than 4000 airports (METAR and TAF reports).

The available stations are represented by yellow and red dots on the map.

Hover mouse over dot to see the name of the station.

Then click to see weather observations and forecasts.

To change the map : click on the green buttons with a black cross to zoom in, on the green button with a dash to zoom out, or on the green arrows for adjacent maps.


METAR-TAF: